createdAt,value
2023-01-19T00:00:56.858Z,1.90
2023-01-19T00:03:24.116Z,1.80
2023-01-19T00:05:51.796Z,1.80
2023-01-19T00:08:19.243Z,1.80
2023-01-19T00:10:48.336Z,1.70
2023-01-19T00:13:16.045Z,1.70
2023-01-19T00:15:43.548Z,1.70
2023-01-19T00:18:11.285Z,1.70
2023-01-19T00:20:39.543Z,1.70
2023-01-19T00:23:08.191Z,1.70
2023-01-19T00:25:36.247Z,1.70
2023-01-19T00:28:03.653Z,1.70
2023-01-19T00:30:30.971Z,1.70
2023-01-19T00:32:58.826Z,1.80
2023-01-19T00:35:26.615Z,1.70
2023-01-19T00:37:53.895Z,1.70
2023-01-19T00:40:21.288Z,1.70
2023-01-19T00:42:48.658Z,1.70
2023-01-19T00:45:19.959Z,1.70
2023-01-19T00:47:47.906Z,1.70
2023-01-19T00:50:16.856Z,1.70
2023-01-19T00:52:44.468Z,1.70
2023-01-19T00:55:13.262Z,1.70
2023-01-19T00:57:40.790Z,1.70
2023-01-19T01:00:11.766Z,1.60
2023-01-19T01:02:40.044Z,1.60
2023-01-19T01:05:07.976Z,1.70
2023-01-19T01:07:40.587Z,1.70
2023-01-19T01:10:09.332Z,1.80
2023-01-19T01:12:37.476Z,1.70
2023-01-19T01:15:09.012Z,1.70
2023-01-19T01:17:36.509Z,1.70
2023-01-19T01:20:04.873Z,1.70
2023-01-19T01:22:32.219Z,1.70
2023-01-19T01:24:59.510Z,1.70
2023-01-19T01:27:26.828Z,1.70
2023-01-19T01:29:54.110Z,1.60
2023-01-19T01:32:21.395Z,1.70
2023-01-19T01:34:48.763Z,1.70
2023-01-19T01:37:16.059Z,1.70
2023-01-19T01:39:43.351Z,1.70
2023-01-19T01:42:18.820Z,1.70
2023-01-19T01:44:54.320Z,1.80
2023-01-19T01:47:31.546Z,1.80
2023-01-19T01:50:05.311Z,1.80
2023-01-19T01:52:33.845Z,1.80
2023-01-19T01:55:01.311Z,1.80
2023-01-19T01:57:28.755Z,1.70
2023-01-19T01:59:56.172Z,1.70
2023-01-19T02:02:43.465Z,1.60
2023-01-19T02:05:32.611Z,1.60
2023-01-19T02:08:31.320Z,1.70
2023-01-19T02:11:17.716Z,1.60
2023-01-19T02:13:45.133Z,1.60
2023-01-19T02:16:13.463Z,1.60
2023-01-19T02:18:41.039Z,1.60
2023-01-19T02:21:19.132Z,1.60
2023-01-19T02:23:50.491Z,1.60
2023-01-19T02:26:20.441Z,1.60
2023-01-19T02:28:57.507Z,1.60
2023-01-19T02:31:25.131Z,1.60
2023-01-19T02:33:52.766Z,1.60
2023-01-19T02:36:23.320Z,1.60
2023-01-19T02:38:50.645Z,1.50
2023-01-19T02:41:21.038Z,1.50
2023-01-19T02:43:48.676Z,1.50
2023-01-19T02:46:16.109Z,1.50
2023-01-19T02:48:43.963Z,1.40
2023-01-19T02:51:14.682Z,1.40
2023-01-19T02:54:13.658Z,1.40
2023-01-19T02:57:39.931Z,1.40
2023-01-19T03:00:21.658Z,1.40
2023-01-19T03:03:02.204Z,1.30
2023-01-19T03:05:42.180Z,1.30
2023-01-19T03:08:40.923Z,1.20
2023-01-19T03:11:12.368Z,1.30
2023-01-19T03:14:01.904Z,1.30
2023-01-19T03:16:44.178Z,1.20
2023-01-19T03:19:35.776Z,1.20
2023-01-19T03:22:11.414Z,1.10
2023-01-19T03:24:42.077Z,1.10
2023-01-19T03:27:26.457Z,1.10
2023-01-19T03:29:55.335Z,1.10
2023-01-19T03:32:25.530Z,1.20
2023-01-19T03:34:52.983Z,1.20
2023-01-19T03:37:20.306Z,1.10
2023-01-19T03:39:47.603Z,1.20
2023-01-19T03:42:15.409Z,1.20
2023-01-19T03:44:42.871Z,1.10
2023-01-19T03:47:11.017Z,1.10
2023-01-19T03:49:38.359Z,1.10
2023-01-19T03:52:06.015Z,1.10
2023-01-19T03:54:33.405Z,1.00
2023-01-19T03:57:00.711Z,1.00
2023-01-19T03:59:28.035Z,1.00
2023-01-19T04:01:55.483Z,1.00
2023-01-19T04:04:22.765Z,1.00
2023-01-19T04:06:50.103Z,1.00
2023-01-19T04:09:19.272Z,1.00
2023-01-19T04:11:47.343Z,1.00
2023-01-19T04:14:14.639Z,1.00
2023-01-19T04:16:41.942Z,1.10
2023-01-19T04:19:09.237Z,1.00
2023-01-19T04:21:36.789Z,1.00
2023-01-19T04:24:04.158Z,1.00
2023-01-19T04:26:31.480Z,0.90
2023-01-19T04:28:58.866Z,0.90
2023-01-19T04:31:26.282Z,1.00
2023-01-19T04:33:53.638Z,1.00
2023-01-19T04:36:20.977Z,1.00
2023-01-19T04:38:48.879Z,1.00
2023-01-19T04:41:16.171Z,1.00
2023-01-19T04:43:43.475Z,1.00
2023-01-19T04:46:10.852Z,1.00
2023-01-19T04:48:38.893Z,1.00
2023-01-19T04:51:07.401Z,1.10
2023-01-19T04:53:34.814Z,1.10
2023-01-19T04:56:02.128Z,1.10
2023-01-19T04:58:29.449Z,1.10
2023-01-19T05:00:56.866Z,1.00
2023-01-19T05:03:25.796Z,1.00
2023-01-19T05:05:53.969Z,1.00
2023-01-19T05:08:21.584Z,1.00
2023-01-19T05:10:48.991Z,1.00
2023-01-19T05:13:16.315Z,0.90
2023-01-19T05:15:43.716Z,1.00
2023-01-19T05:18:11.262Z,1.00
2023-01-19T05:20:39.634Z,1.00
2023-01-19T05:23:07.359Z,1.00
2023-01-19T05:25:34.681Z,1.00
2023-01-19T05:28:02.880Z,1.00
2023-01-19T05:30:30.222Z,1.00
2023-01-19T05:32:57.615Z,1.00
2023-01-19T05:35:35.414Z,1.00
2023-01-19T05:38:03.469Z,1.00
2023-01-19T05:40:30.846Z,1.00
2023-01-19T05:43:01.882Z,1.00
2023-01-19T05:45:29.399Z,1.00
2023-01-19T05:47:56.914Z,1.00
2023-01-19T05:50:24.320Z,1.00
2023-01-19T05:52:54.758Z,1.00
2023-01-19T05:55:22.134Z,1.10
2023-01-19T05:57:49.555Z,1.10
2023-01-19T06:00:17.115Z,1.00
2023-01-19T06:02:44.591Z,1.00
2023-01-19T06:05:12.461Z,1.10
2023-01-19T06:07:39.820Z,1.10
2023-01-19T06:10:07.684Z,1.10
2023-01-19T06:12:35.053Z,1.20
2023-01-19T06:15:02.386Z,1.20
2023-01-19T06:17:31.567Z,1.30
2023-01-19T06:19:58.908Z,1.30
2023-01-19T06:22:26.210Z,1.30
2023-01-19T06:24:53.569Z,1.30
2023-01-19T06:27:20.923Z,1.30
2023-01-19T06:29:48.519Z,1.20
2023-01-19T06:32:15.818Z,1.20
2023-01-19T06:34:43.844Z,1.20
2023-01-19T06:37:11.800Z,1.20
2023-01-19T06:39:41.074Z,1.20
2023-01-19T06:42:08.821Z,1.20
2023-01-19T06:44:36.218Z,1.20
2023-01-19T06:47:15.433Z,1.20
2023-01-19T06:49:43.661Z,1.30
2023-01-19T06:52:12.297Z,1.30
2023-01-19T06:54:39.834Z,1.30
2023-01-19T06:57:07.137Z,1.30
2023-01-19T06:59:34.455Z,1.40
2023-01-19T07:02:26.982Z,1.40
2023-01-19T07:04:49.308Z,1.40
2023-01-19T07:07:17.056Z,1.40
2023-01-19T07:09:44.399Z,1.50
2023-01-19T07:12:11.697Z,1.50
2023-01-19T07:14:39.240Z,1.50
2023-01-19T07:17:06.955Z,1.40
2023-01-19T07:19:35.316Z,1.40
2023-01-19T07:22:03.247Z,1.30
2023-01-19T07:24:30.749Z,1.30
2023-01-19T07:26:58.580Z,1.30
2023-01-19T07:29:26.055Z,1.20
2023-01-19T07:31:54.799Z,1.20
2023-01-19T07:34:22.257Z,1.30
2023-01-19T07:36:49.635Z,1.20
2023-01-19T07:39:17.096Z,1.30
2023-01-19T07:41:44.436Z,1.30
2023-01-19T07:44:11.782Z,1.30
2023-01-19T07:46:39.174Z,1.30
2023-01-19T07:49:06.478Z,1.40
2023-01-19T07:51:33.758Z,1.30
2023-01-19T07:54:01.734Z,1.30
2023-01-19T07:56:32.689Z,1.40
2023-01-19T07:59:00.203Z,1.40
2023-01-19T08:01:27.587Z,1.40
2023-01-19T08:03:55.067Z,1.40
2023-01-19T08:06:23.700Z,1.40
2023-01-19T08:08:51.179Z,1.40
2023-01-19T08:11:18.526Z,1.40
2023-01-19T08:13:45.892Z,1.40
2023-01-19T08:16:13.242Z,1.40
2023-01-19T08:18:40.516Z,1.40
2023-01-19T08:21:08.015Z,1.40
2023-01-19T08:23:35.380Z,1.40
2023-01-19T08:26:03.011Z,1.40
2023-01-19T08:28:30.310Z,1.50
2023-01-19T08:30:57.981Z,1.60
2023-01-19T08:33:25.453Z,1.60
2023-01-19T08:35:53.424Z,1.60
2023-01-19T08:38:20.750Z,1.60
2023-01-19T08:40:48.911Z,1.60
2023-01-19T08:43:16.868Z,1.60
2023-01-19T08:45:49.160Z,1.70
2023-01-19T08:48:18.691Z,1.70
2023-01-19T08:50:46.860Z,1.80
2023-01-19T08:53:14.261Z,1.80
2023-01-19T08:55:41.616Z,2.00
2023-01-19T08:58:09.127Z,2.00
2023-01-19T09:00:40.249Z,2.00
2023-01-19T09:03:08.773Z,2.00
2023-01-19T09:05:38.753Z,2.00
2023-01-19T09:08:10.773Z,2.00
2023-01-19T09:10:39.096Z,1.90
2023-01-19T09:13:08.464Z,2.00
2023-01-19T09:15:37.759Z,2.00
2023-01-19T09:18:07.096Z,2.00
2023-01-19T09:20:36.180Z,2.00
2023-01-19T09:23:03.620Z,2.00
2023-01-19T09:25:31.239Z,2.00
2023-01-19T09:28:02.796Z,2.00
2023-01-19T09:30:30.411Z,2.00
2023-01-19T09:33:02.643Z,2.00
2023-01-19T09:35:31.549Z,2.00
2023-01-19T09:37:59.383Z,2.00
2023-01-19T09:40:27.220Z,2.00
2023-01-19T09:43:11.896Z,2.00
2023-01-19T09:45:50.841Z,2.00
2023-01-19T09:48:52.931Z,2.10
2023-01-19T09:51:28.250Z,2.10
2023-01-19T09:54:17.651Z,2.10
2023-01-19T09:56:46.151Z,2.10
2023-01-19T09:59:26.427Z,2.20
2023-01-19T10:01:58.862Z,2.20
2023-01-19T10:04:41.041Z,2.30
2023-01-19T10:07:20.761Z,2.30
2023-01-19T10:10:09.967Z,2.30
2023-01-19T10:12:52.157Z,2.40
2023-01-19T10:15:31.876Z,2.50
2023-01-19T10:18:35.784Z,2.50
2023-01-19T10:21:05.639Z,2.50
2023-01-19T10:23:46.312Z,2.60
2023-01-19T10:26:29.708Z,2.60
2023-01-19T10:29:01.613Z,2.70
2023-01-19T10:31:29.101Z,2.80
2023-01-19T10:33:56.550Z,2.90
2023-01-19T10:36:50.585Z,2.90
2023-01-19T10:39:18.759Z,3.00
2023-01-19T10:41:53.218Z,3.00
2023-01-19T10:44:28.518Z,3.10
2023-01-19T10:46:57.472Z,3.10
2023-01-19T10:49:29.167Z,3.10
2023-01-19T10:51:57.554Z,3.10
2023-01-19T10:54:25.714Z,3.10
2023-01-19T10:56:58.312Z,3.20
2023-01-19T10:59:31.408Z,3.30
2023-01-19T11:02:21.770Z,3.30
2023-01-19T11:04:51.328Z,3.30
2023-01-19T11:07:33.806Z,3.30
2023-01-19T11:10:16.396Z,3.30
2023-01-19T11:12:56.688Z,3.40
2023-01-19T11:15:33.047Z,3.50
2023-01-19T11:18:01.251Z,3.60
2023-01-19T11:20:51.189Z,3.60
2023-01-19T11:23:18.462Z,3.60
2023-01-19T11:25:46.967Z,3.60
2023-01-19T11:28:37.007Z,3.50
2023-01-19T11:31:18.141Z,3.60
2023-01-19T11:33:45.502Z,3.60
2023-01-19T11:36:21.461Z,3.60
2023-01-19T11:38:53.949Z,3.60
2023-01-19T11:41:37.304Z,3.60
2023-01-19T11:44:26.156Z,3.70
2023-01-19T11:46:58.761Z,3.80
2023-01-19T11:49:46.802Z,3.80
2023-01-19T11:52:32.675Z,3.80
2023-01-19T11:55:14.721Z,3.80
2023-01-19T11:57:49.780Z,3.80
2023-01-19T12:00:46.000Z,3.70
2023-01-19T12:03:33.605Z,3.70
2023-01-19T12:06:04.614Z,3.80
2023-01-19T12:08:37.853Z,3.80
2023-01-19T12:11:05.718Z,3.80
2023-01-19T12:13:33.442Z,3.90
2023-01-19T12:16:08.930Z,3.90
2023-01-19T12:18:47.700Z,4.00
2023-01-19T12:21:15.085Z,4.00
2023-01-19T12:23:51.192Z,4.00
2023-01-19T12:26:40.864Z,4.00
2023-01-19T12:29:18.603Z,4.20
2023-01-19T12:31:46.091Z,4.10
2023-01-19T12:34:46.800Z,4.10
2023-01-19T12:37:32.546Z,4.00
2023-01-19T12:40:01.436Z,4.00
2023-01-19T12:42:28.832Z,4.00
2023-01-19T12:45:12.961Z,3.90
2023-01-19T12:47:40.332Z,3.90
2023-01-19T12:50:11.712Z,3.80
2023-01-19T12:52:49.421Z,3.80
2023-01-19T12:55:33.283Z,3.80
2023-01-19T12:58:12.872Z,3.80
2023-01-19T13:00:41.172Z,3.80
2023-01-19T13:03:17.833Z,3.70
2023-01-19T13:05:48.519Z,3.70
2023-01-19T13:08:17.382Z,3.80
2023-01-19T13:11:10.390Z,3.80
2023-01-19T13:13:42.712Z,3.80
2023-01-19T13:16:19.794Z,3.80
2023-01-19T13:18:54.138Z,3.80
2023-01-19T13:21:30.611Z,3.80
2023-01-19T13:23:59.301Z,3.80
2023-01-19T13:26:32.499Z,3.70
2023-01-19T13:29:07.490Z,3.70
2023-01-19T13:31:35.491Z,3.70
2023-01-19T13:34:03.084Z,3.60
2023-01-19T13:36:35.636Z,3.60
2023-01-19T13:39:08.065Z,3.70
2023-01-19T13:41:36.961Z,3.70
2023-01-19T13:44:23.167Z,3.70
2023-01-19T13:46:51.260Z,3.80
2023-01-19T13:49:25.780Z,3.80
2023-01-19T13:52:14.373Z,3.80
2023-01-19T13:54:55.374Z,3.80
2023-01-19T13:57:23.081Z,3.80
2023-01-19T14:00:09.261Z,3.80
2023-01-19T14:02:39.879Z,3.90
2023-01-19T14:05:25.198Z,3.80
2023-01-19T14:08:13.820Z,3.80
2023-01-19T14:10:47.745Z,3.80
2023-01-19T14:13:29.440Z,3.80
2023-01-19T14:15:58.962Z,3.80
2023-01-19T14:18:30.727Z,3.90
2023-01-19T14:21:03.672Z,3.90
2023-01-19T14:23:38.308Z,3.90
2023-01-19T14:26:06.496Z,4.00
2023-01-19T14:28:36.211Z,4.00
2023-01-19T14:31:18.382Z,4.00
2023-01-19T14:33:47.108Z,3.90
2023-01-19T14:36:17.471Z,3.80
2023-01-19T14:38:49.769Z,3.70
2023-01-19T14:41:33.008Z,3.80
2023-01-19T14:44:00.383Z,3.70
2023-01-19T14:46:27.805Z,3.70
2023-01-19T14:49:02.308Z,3.70
2023-01-19T14:51:29.675Z,3.60
2023-01-19T14:53:58.892Z,3.60
2023-01-19T14:56:31.275Z,3.60
2023-01-19T14:58:59.487Z,3.70
2023-01-19T15:01:31.026Z,3.70
2023-01-19T15:03:58.721Z,3.70
2023-01-19T15:06:26.211Z,3.70
2023-01-19T15:08:53.663Z,3.70
2023-01-19T15:11:29.132Z,3.70
2023-01-19T15:13:56.499Z,3.70
2023-01-19T15:16:24.019Z,3.70
2023-01-19T15:18:51.589Z,3.70
2023-01-19T15:21:21.602Z,3.70
2023-01-19T15:23:49.405Z,3.70
2023-01-19T15:26:18.144Z,3.60
2023-01-19T15:28:45.824Z,3.70
2023-01-19T15:31:17.377Z,3.70
2023-01-19T15:33:44.782Z,3.70
2023-01-19T15:36:13.581Z,3.70
2023-01-19T15:38:40.925Z,3.70
2023-01-19T15:41:27.709Z,3.70
2023-01-19T15:43:55.253Z,3.80
2023-01-19T15:46:23.404Z,3.70
2023-01-19T15:48:50.887Z,3.60
2023-01-19T15:51:19.888Z,3.60
2023-01-19T15:53:47.491Z,3.60
2023-01-19T15:56:25.028Z,3.60
2023-01-19T15:58:52.783Z,3.60
2023-01-19T16:01:24.234Z,3.60
2023-01-19T16:03:51.689Z,3.60
2023-01-19T16:06:19.069Z,3.50
2023-01-19T16:08:46.459Z,3.50
2023-01-19T16:11:15.017Z,3.50
2023-01-19T16:13:45.530Z,3.50
2023-01-19T16:16:15.922Z,3.40
2023-01-19T16:18:43.387Z,3.40
2023-01-19T16:21:10.773Z,3.40
2023-01-19T16:23:38.204Z,3.30
2023-01-19T16:26:07.960Z,3.30
2023-01-19T16:28:36.071Z,3.20
2023-01-19T16:31:03.827Z,3.20
2023-01-19T16:33:31.195Z,3.30
2023-01-19T16:35:58.989Z,3.30
2023-01-19T16:38:26.365Z,3.30
2023-01-19T16:40:53.659Z,3.30
2023-01-19T16:43:20.962Z,3.20
2023-01-19T16:45:59.188Z,3.20
2023-01-19T16:48:26.877Z,3.10
2023-01-19T16:51:02.214Z,3.10
2023-01-19T16:53:29.753Z,3.10
2023-01-19T16:55:57.120Z,3.10
2023-01-19T16:58:24.507Z,3.10
2023-01-19T17:00:51.946Z,3.00
2023-01-19T17:03:19.445Z,3.00
2023-01-19T17:05:50.594Z,3.00
2023-01-19T17:08:19.368Z,3.00
2023-01-19T17:10:47.709Z,3.00
2023-01-19T17:13:15.071Z,3.00
2023-01-19T17:15:43.217Z,3.00
2023-01-19T17:18:10.692Z,3.00
2023-01-19T17:20:38.024Z,3.00
2023-01-19T17:23:05.461Z,2.90
2023-01-19T17:25:32.800Z,2.90
2023-01-19T17:28:01.282Z,3.00
2023-01-19T17:30:28.727Z,3.00
2023-01-19T17:32:56.135Z,3.00
2023-01-19T17:35:23.480Z,3.10
2023-01-19T17:37:54.461Z,3.10
2023-01-19T17:40:21.794Z,3.10
2023-01-19T17:42:49.120Z,3.10
2023-01-19T17:45:16.566Z,3.10
2023-01-19T17:47:43.886Z,3.10
2023-01-19T17:50:11.562Z,3.10
2023-01-19T17:52:39.082Z,3.10
2023-01-19T17:55:06.799Z,3.10
2023-01-19T17:57:34.257Z,3.10
2023-01-19T18:00:02.085Z,3.10
2023-01-19T18:02:40.220Z,3.10
2023-01-19T18:05:12.581Z,3.10
2023-01-19T18:07:40.191Z,3.10
2023-01-19T18:10:08.359Z,3.10
2023-01-19T18:12:35.741Z,3.10
2023-01-19T18:15:05.058Z,3.10
2023-01-19T18:17:32.450Z,3.10
2023-01-19T18:19:59.872Z,3.10
2023-01-19T18:22:27.202Z,3.10
2023-01-19T18:24:54.545Z,3.10
2023-01-19T18:27:22.001Z,3.10
2023-01-19T18:29:49.302Z,3.10
2023-01-19T18:32:16.714Z,3.10
2023-01-19T18:34:44.022Z,3.10
2023-01-19T18:37:11.342Z,3.00
2023-01-19T18:39:38.663Z,3.00
2023-01-19T18:42:06.100Z,3.00
2023-01-19T18:44:33.393Z,3.00
2023-01-19T18:47:00.952Z,3.00
2023-01-19T18:49:28.256Z,3.10
2023-01-19T18:51:56.069Z,3.00
2023-01-19T18:54:23.358Z,3.00
2023-01-19T18:56:50.829Z,2.90
2023-01-19T18:59:18.292Z,2.90
2023-01-19T19:01:45.692Z,2.80
2023-01-19T19:04:13.059Z,2.80
2023-01-19T19:06:40.433Z,2.80
2023-01-19T19:09:07.815Z,2.80
2023-01-19T19:11:35.296Z,2.70
2023-01-19T19:14:02.737Z,2.70
2023-01-19T19:16:30.254Z,2.70
2023-01-19T19:18:57.756Z,2.70
2023-01-19T19:21:25.577Z,2.80
2023-01-19T19:23:57.465Z,2.80
2023-01-19T19:26:25.522Z,2.80
2023-01-19T19:28:52.831Z,2.80
2023-01-19T19:31:21.218Z,2.80
2023-01-19T19:33:48.976Z,2.80
2023-01-19T19:36:16.495Z,2.70
2023-01-19T19:38:44.877Z,2.70
2023-01-19T19:41:12.963Z,2.60
2023-01-19T19:43:40.648Z,2.60
2023-01-19T19:46:09.605Z,2.60
2023-01-19T19:48:39.136Z,2.60
2023-01-19T19:51:22.663Z,2.60
2023-01-19T19:53:51.838Z,2.60
2023-01-19T19:56:21.229Z,2.60
2023-01-19T19:58:49.175Z,2.60
2023-01-19T20:01:18.407Z,2.60
2023-01-19T20:03:45.881Z,2.50
2023-01-19T20:06:14.929Z,2.50
2023-01-19T20:08:42.266Z,2.50
2023-01-19T20:11:14.281Z,2.50
2023-01-19T20:13:42.471Z,2.50
2023-01-19T20:16:14.290Z,2.50
2023-01-19T20:18:42.710Z,2.50
2023-01-19T20:21:20.852Z,2.50
2023-01-19T20:23:48.645Z,2.50
2023-01-19T20:26:17.000Z,2.50
2023-01-19T20:28:44.430Z,2.50
2023-01-19T20:31:15.851Z,2.50
2023-01-19T20:33:43.355Z,2.60
2023-01-19T20:36:11.052Z,2.60
2023-01-19T20:38:38.888Z,2.60
2023-01-19T20:41:07.172Z,2.50
2023-01-19T20:43:34.761Z,2.40
2023-01-19T20:46:02.259Z,2.40
2023-01-19T20:48:30.183Z,2.30
2023-01-19T20:51:05.786Z,2.30
2023-01-19T20:53:33.172Z,2.20
2023-01-19T20:56:20.850Z,2.20
2023-01-19T20:58:48.178Z,2.10
2023-01-19T21:01:17.867Z,2.10
2023-01-19T21:03:45.520Z,2.10
2023-01-19T21:06:13.086Z,2.10
2023-01-19T21:08:40.556Z,2.00
2023-01-19T21:11:07.981Z,2.10
2023-01-19T21:13:35.540Z,2.10
2023-01-19T21:16:02.954Z,2.10
2023-01-19T21:18:30.305Z,2.10
2023-01-19T21:20:57.848Z,2.00
2023-01-19T21:23:28.765Z,2.00
2023-01-19T21:25:57.675Z,2.00
2023-01-19T21:28:25.438Z,2.00
2023-01-19T21:30:53.403Z,1.90
2023-01-19T21:33:20.931Z,1.90
2023-01-19T21:35:51.359Z,1.90
2023-01-19T21:38:18.768Z,1.90
2023-01-19T21:40:46.296Z,2.00
2023-01-19T21:43:13.762Z,2.00
2023-01-19T21:45:43.096Z,2.00
2023-01-19T21:48:10.630Z,2.00
2023-01-19T21:50:38.214Z,2.00
2023-01-19T21:53:11.399Z,2.10
2023-01-19T21:55:40.749Z,2.10
2023-01-19T21:58:08.294Z,2.10
2023-01-19T22:00:35.594Z,2.10
2023-01-19T22:03:04.490Z,2.10
2023-01-19T22:05:36.743Z,2.10
2023-01-19T22:08:06.348Z,2.10
2023-01-19T22:10:37.458Z,2.10
2023-01-19T22:13:06.696Z,2.10
2023-01-19T22:15:34.184Z,2.10
2023-01-19T22:18:01.554Z,2.10
2023-01-19T22:20:28.892Z,2.00
2023-01-19T22:22:56.751Z,2.00
2023-01-19T22:25:27.715Z,2.00
2023-01-19T22:27:55.757Z,2.00
2023-01-19T22:30:23.310Z,2.00
2023-01-19T22:32:50.686Z,2.00
2023-01-19T22:35:18.015Z,2.00
2023-01-19T22:37:45.320Z,2.00
2023-01-19T22:40:13.004Z,2.00
2023-01-19T22:42:40.332Z,2.00
2023-01-19T22:45:08.313Z,2.00
2023-01-19T22:47:35.682Z,2.00
2023-01-19T22:50:03.035Z,2.10
2023-01-19T22:52:30.331Z,2.00
2023-01-19T22:54:58.298Z,2.00
2023-01-19T22:57:25.634Z,2.00
2023-01-19T22:59:52.996Z,2.00
2023-01-19T23:02:21.029Z,2.00
2023-01-19T23:04:48.570Z,2.00
2023-01-19T23:07:15.888Z,2.00
2023-01-19T23:09:43.272Z,2.00
2023-01-19T23:12:10.589Z,2.00
2023-01-19T23:14:38.014Z,2.00
2023-01-19T23:17:05.332Z,2.00
2023-01-19T23:19:32.666Z,2.00
2023-01-19T23:22:00.038Z,2.00
2023-01-19T23:24:27.401Z,2.00
2023-01-19T23:26:54.696Z,2.00
2023-01-19T23:29:22.072Z,1.90
2023-01-19T23:31:49.604Z,1.90
2023-01-19T23:34:17.028Z,1.90
2023-01-19T23:36:44.547Z,1.90
2023-01-19T23:39:16.892Z,1.90
2023-01-19T23:41:44.327Z,1.90
2023-01-19T23:44:11.643Z,1.90
2023-01-19T23:46:39.261Z,2.00
2023-01-19T23:49:06.641Z,1.90
2023-01-19T23:51:34.539Z,2.00
2023-01-19T23:54:01.981Z,2.00
2023-01-19T23:56:33.737Z,2.00
2023-01-19T23:59:08.120Z,2.10
